BAD weather

Barksdale Air Force Base
Bossier City, Louisiana, United States

Public forecast

Using degrees Fahrenheit for public forecast. Weather courtesy of forecast.io.

Current aviation weather report (METAR) for Barksdale Air Force Base

Retrieved 2020/02/19 01:06 UTC (4 minutes ago):

KBAD 190106Z AUTO 04010KT 10SM -RA BKN010 10/10 A3015 RMK AO2 BKN V OVC CIG 009 RWY15 SLP212

Aviation forecast (TAF) for Barksdale Air Force Base

Retrieved 2020-02-19 02:14 UTC (0 seconds ago):

TAF KBAD 190200Z 1902/2008 01015KT 9999 -SHRA OVC010 QNH3019INS BECMG 1912/1913 03012KT 9999 VCSH OVC008 QNH3021INS TEMPO 1920/1922 OVC012 BECMG 1923/1923 09010KT 9999 -RA OVC007 QNH3020INS TX09/1922Z TN04/1918Z